Hakuryoumaru No.15 — JD2439 — position and weather

sailwx.info

Track history (hours):
 
Tides and Currents Weather Stations Pressure Air Temp Water Temp Dewpoint Dewpoint Depression Visibility Wind Speed Wind Dir Waves Ship Positions

Hakuryoumaru No.15

Last reported at 2017-Jan-17 00:04 UTC. Time now 2017-Jan-17 17:16 UTC.
Position N 34°07' E 135°07'.

Length 80 m; draft 5.2 m.

Type: Tanker. MMSI: 431000243.

Date/timePositionNaut miles runAvg speedWind from/ knotsBaromVisibWave heightAir tempDewpointWater temp
2017-Jan-17 00:04N 34°07' E 135°07'3 5.5
2017-Jan-16 23:33N 34°10' E 135°09'0 0.4
2017-Jan-16 22:32N 34°10' E 135°09'0 0.0
2017-Jan-16 21:08N 34°10' E 135°09'0 0.0
2017-Jan-16 20:32N 34°10' E 135°09'0 0.1
2017-Jan-16 19:33N 34°10' E 135°09'  
2017-Jan-14 04:33N 35°17' E 139°45'1110.9
2017-Jan-14 03:33N 35°28' E 139°47'1 0.3
2017-Jan-13 23:33N 35°29' E 139°48'0 0.1
2017-Jan-13 22:29N 35°29' E 139°48'0 0.0
2017-Jan-13 21:32N 35°29' E 139°48'0 0.0
2017-Jan-13 20:32N 35°29' E 139°48'0 0.0
2017-Jan-13 19:32N 35°29' E 139°48'0 0.1
2017-Jan-13 18:29N 35°29' E 139°48'0 0.0
2017-Jan-13 17:32N 35°29' E 139°48'0 0.0
2017-Jan-13 16:32N 35°29' E 139°48'0 0.0
2017-Jan-13 15:29N 35°29' E 139°48'0 0.0
2017-Jan-13 14:32N 35°29' E 139°48'0 0.0
2017-Jan-13 13:32N 35°29' E 139°48'1110.9
2017-Jan-13 12:33N 35°31' E 140°01'1 0.1
2017-Jan-13 05:23N 35°32' E 140°01'0 0.0
2017-Jan-13 03:29N 35°32' E 140°01'0 0.0
2017-Jan-13 02:32N 35°32' E 140°01'0 0.0
2017-Jan-13 00:12N 35°32' E 140°01'0 0.0
2017-Jan-12 15:33N 35°32' E 140°01'1211.9
2017-Jan-12 14:33N 35°26' E 139°48'1110.8
2017-Jan-12 13:33N 35°15' E 139°47'24310.4
2017-Jan-11 14:11N 34°06' E 135°03'4 0.4
2017-Jan-11 05:33N 34°07' E 135°07'3 2.9
2017-Jan-11 04:30N 34°10' E 135°10'0 0.0
2017-Jan-11 03:18N 34°10' E 135°10'0 0.0
2017-Jan-11 02:33N 34°10' E 135°10'0 0.0
2017-Jan-11 01:33N 34°10' E 135°10'0 0.0
2017-Jan-10 23:33N 34°10' E 135°10'0 0.0
2017-Jan-10 22:33N 34°10' E 135°10'0 0.0
2017-Jan-10 21:33N 34°10' E 135°10'0 0.0
2017-Jan-10 20:30N 34°10' E 135°10'0 0.0
2017-Jan-10 19:33N 34°10' E 135°10'0 0.0
2017-Jan-10 18:33N 34°10' E 135°10'0 0.0
2017-Jan-10 17:30N 34°10' E 135°10'0 0.0
2017-Jan-10 16:30N 34°10' E 135°10'0 0.0
2017-Jan-10 15:33N 34°10' E 135°10'  
Track history (hours):
 
Tides and Currents Weather Stations Pressure Air Temp Water Temp Dewpoint Dewpoint Depression Visibility Wind Speed Wind Dir Waves Ship Positions

Hakuryoumaru No.15

Last reported at 2017-Jan-17 00:04 UTC. Time now 2017-Jan-17 17:16 UTC.
Position N 34°07' E 135°07'.

Length 80 m; draft 5.2 m.

Type: Tanker. MMSI: 431000243.

Date/timePositionNaut miles runAvg speedWind from/ knotsBaromVisibWave heightAir tempDewpointWater temp
2017-Jan-17 00:04N 34°07' E 135°07'3 5.5
2017-Jan-16 23:33N 34°10' E 135°09'0 0.4
2017-Jan-16 22:32N 34°10' E 135°09'0 0.0
2017-Jan-16 21:08N 34°10' E 135°09'0 0.0
2017-Jan-16 20:32N 34°10' E 135°09'0 0.1
2017-Jan-16 19:33N 34°10' E 135°09'  
2017-Jan-14 04:33N 35°17' E 139°45'1110.9
2017-Jan-14 03:33N 35°28' E 139°47'1 0.3
2017-Jan-13 23:33N 35°29' E 139°48'0 0.1
2017-Jan-13 22:29N 35°29' E 139°48'0 0.0
2017-Jan-13 21:32N 35°29' E 139°48'0 0.0
2017-Jan-13 20:32N 35°29' E 139°48'0 0.0
2017-Jan-13 19:32N 35°29' E 139°48'0 0.1
2017-Jan-13 18:29N 35°29' E 139°48'0 0.0
2017-Jan-13 17:32N 35°29' E 139°48'0 0.0
2017-Jan-13 16:32N 35°29' E 139°48'0 0.0
2017-Jan-13 15:29N 35°29' E 139°48'0 0.0
2017-Jan-13 14:32N 35°29' E 139°48'0 0.0
2017-Jan-13 13:32N 35°29' E 139°48'1110.9
2017-Jan-13 12:33N 35°31' E 140°01'1 0.1
2017-Jan-13 05:23N 35°32' E 140°01'0 0.0
2017-Jan-13 03:29N 35°32' E 140°01'0 0.0
2017-Jan-13 02:32N 35°32' E 140°01'0 0.0
2017-Jan-13 00:12N 35°32' E 140°01'0 0.0
2017-Jan-12 15:33N 35°32' E 140°01'1211.9
2017-Jan-12 14:33N 35°26' E 139°48'1110.8
2017-Jan-12 13:33N 35°15' E 139°47'24310.4
2017-Jan-11 14:11N 34°06' E 135°03'4 0.4
2017-Jan-11 05:33N 34°07' E 135°07'3 2.9
2017-Jan-11 04:30N 34°10' E 135°10'0 0.0
2017-Jan-11 03:18N 34°10' E 135°10'0 0.0
2017-Jan-11 02:33N 34°10' E 135°10'0 0.0
2017-Jan-11 01:33N 34°10' E 135°10'0 0.0
2017-Jan-10 23:33N 34°10' E 135°10'0 0.0
2017-Jan-10 22:33N 34°10' E 135°10'0 0.0
2017-Jan-10 21:33N 34°10' E 135°10'0 0.0
2017-Jan-10 20:30N 34°10' E 135°10'0 0.0
2017-Jan-10 19:33N 34°10' E 135°10'0 0.0
2017-Jan-10 18:33N 34°10' E 135°10'0 0.0
2017-Jan-10 17:30N 34°10' E 135°10'0 0.0
2017-Jan-10 16:30N 34°10' E 135°10'0 0.0
2017-Jan-10 15:33N 34°10' E 135°10'  

Dump ship's entire track history